Time;durP1;ratioP1;P1;durP2;ratioP2;P2;SDS_P1;SDS_P2;PMS_P1;PMS_P2;Temp;Humidity;BMP_temperature;BMP_pressure;BME280_temperature;BME280_humidity;BME280_pressure;Samples;Min_cycle;Max_cycle;Signal;HPM_P1;HPM_P2
2022/07/21 00:02:12;;;;;;;;;;;;;;;25.77;37.94;100544.22;4843207;28;98582;-63
2022/07/21 00:05:04;;;;;;;;;;;;;;;25.77;37.88;100546.97;4843038;28;98700;-61
2022/07/21 00:07:57;;;;;;;;;;;;;;;25.76;37.92;100559.19;4842367;28;98593;-61
2022/07/21 00:10:50;;;;;;;;;;;;;;;25.74;37.89;100561.50;4841660;28;98925;-63
2022/07/21 00:13:42;;;;;;;;;;;;;;;25.71;38.05;100557.53;4841986;28;98413;-56
2022/07/21 00:16:35;;;;;;;;;;;;;;;25.69;38.22;100559.84;4843158;28;98457;-61
2022/07/21 00:19:28;;;;;;;;;;;;;;;25.65;37.98;100562.53;4842547;28;98153;-61
2022/07/21 00:22:20;;;;;;;;;;;;;;;25.60;38.28;100564.81;4841607;28;97810;-63
2022/07/21 00:25:13;;;;;;;;;;;;;;;25.53;38.49;100570.19;4843440;28;98464;-61
2022/07/21 00:28:06;;;;;;;;;;;;;;;25.46;38.68;100571.66;4841656;28;97779;-55
2022/07/21 00:30:59;;;;;;;;;;;;;;;25.39;38.44;100566.03;4822615;28;98547;-63
2022/07/21 00:33:51;;;;;;;;;;;;;;;25.36;38.75;100565.94;4839924;28;98103;-56
2022/07/21 00:36:44;;;;;;;;;;;;;;;25.33;38.82;100563.91;4843679;28;98326;-61
2022/07/21 00:39:36;;;;;;;;;;;;;;;25.29;38.97;100563.84;4841996;28;98360;-63
2022/07/21 00:42:38;;;;;;;;;;;;;;;25.24;38.86;100561.38;4841538;28;97908;-61
2022/07/21 00:45:30;;;;;;;;;;;;;;;25.20;38.92;100564.06;4843025;28;97884;-56
2022/07/21 00:48:32;;;;;;;;;;;;;;;25.15;39.10;100558.03;4841862;28;98323;-61
2022/07/21 00:51:25;;;;;;;;;;;;;;;25.09;39.39;100562.22;4842443;28;98545;-56
2022/07/21 00:54:17;;;;;;;;;;;;;;;25.05;39.30;100553.88;4839178;28;98012;-56
2022/07/21 00:57:10;;;;;;;;;;;;;;;25.02;39.25;100557.34;4906933;28;98317;-63
2022/07/21 01:00:03;;;;;;;;;;;;;;;24.98;39.31;100554.53;4824801;28;98026;-61
2022/07/21 01:02:55;;;;;;;;;;;;;;;24.95;39.74;100554.44;4840793;28;98493;-56
2022/07/21 01:05:48;;;;;;;;;;;;;;;24.93;39.54;100554.03;4841345;28;98176;-56
2022/07/21 01:08:41;;;;;;;;;;;;;;;24.90;39.55;100552.00;4905757;28;98103;-61
2022/07/21 01:11:33;;;;;;;;;;;;;;;24.87;39.96;100559.00;4841223;28;98234;-61
2022/07/21 01:14:26;;;;;;;;;;;;;;;24.85;39.81;100566.06;4841503;28;98563;-55
2022/07/21 01:17:19;;;;;;;;;;;;;;;24.82;39.92;100567.59;4841420;28;99298;-61
2022/07/21 01:20:12;;;;;;;;;;;;;;;24.80;40.22;100569.91;4823787;28;98795;-56
2022/07/21 01:23:06;;;;;;;;;;;;;;;24.78;40.00;100574.19;4825691;28;98254;-63
2022/07/21 01:25:58;;;;;;;;;;;;;;;24.73;40.27;100576.06;4823195;28;98638;-61
2022/07/21 01:28:51;;;;;;;;;;;;;;;24.70;40.36;100587.00;4837362;28;98115;-56
2022/07/21 01:31:44;;;;;;;;;;;;;;;24.68;40.39;100611.34;4843280;28;97991;-61
2022/07/21 01:34:36;;;;;;;;;;;;;;;24.64;40.59;100618.75;4842490;28;99098;-58
2022/07/21 01:37:40;;;;;;;;;;;;;;;24.55;41.30;100615.38;4840451;28;98301;-61
2022/07/21 01:43:37;;;;;;;;;;;;;;;24.32;40.94;100624.25;4838193;28;97828;-62
2022/07/21 01:46:30;;;;;;;;;;;;;;;24.24;41.08;100608.72;4840910;28;98553;-56
2022/07/21 01:49:22;;;;;;;;;;;;;;;24.17;41.04;100614.03;4840980;28;98806;-62
2022/07/21 01:52:26;;;;;;;;;;;;;;;24.12;41.17;100604.09;4841682;28;97852;-61
2022/07/21 01:55:19;;;;;;;;;;;;;;;24.07;41.62;100592.56;4841490;28;97658;-56
2022/07/21 01:58:11;;;;;;;;;;;;;;;24.02;41.32;100584.59;4840340;28;98349;-61
2022/07/21 02:01:04;;;;;;;;;;;;;;;23.98;41.44;100582.53;4830404;28;98364;-56
2022/07/21 02:03:56;;;;;;;;;;;;;;;23.94;41.04;100576.16;4842509;28;98982;-61
2022/07/21 02:06:49;;;;;;;;;;;;;;;23.93;41.32;100582.81;4822711;28;97727;-56
2022/07/21 02:09:42;;;;;;;;;;;;;;;23.92;41.21;100594.97;4830761;28;99303;-61
2022/07/21 02:12:34;;;;;;;;;;;;;;;23.92;41.17;100608.72;4841657;28;98096;-61
2022/07/21 02:15:27;;;;;;;;;;;;;;;23.91;41.14;100611.84;4842845;28;97742;-56
2022/07/21 02:18:20;;;;;;;;;;;;;;;23.92;41.37;100605.16;4840329;28;97875;-61
2022/07/21 02:21:12;;;;;;;;;;;;;;;23.93;41.27;100615.84;4841120;28;98901;-56
2022/07/21 02:24:05;;;;;;;;;;;;;;;23.93;40.98;100615.03;4840804;28;98466;-61
2022/07/21 02:26:58;;;;;;;;;;;;;;;23.94;40.91;100620.19;4840234;28;98316;-55
2022/07/21 02:29:50;;;;;;;;;;;;;;;23.95;41.10;100630.03;4839687;28;97923;-56
2022/07/21 02:32:43;;;;;;;;;;;;;;;23.94;40.84;100625.69;4840596;28;98545;-55
2022/07/21 02:35:35;;;;;;;;;;;;;;;23.97;40.93;100629.66;4840330;28;98217;-56
2022/07/21 02:38:28;;;;;;;;;;;;;;;23.96;40.78;100634.38;4839574;28;97755;-63
2022/07/21 02:41:21;;;;;;;;;;;;;;;23.97;41.02;100635.19;4839954;28;97936;-63
2022/07/21 02:44:13;;;;;;;;;;;;;;;23.97;40.81;100629.66;4839345;28;98149;-55
2022/07/21 02:47:06;;;;;;;;;;;;;;;23.98;41.00;100634.84;4840996;28;97917;-56
2022/07/21 02:49:58;;;;;;;;;;;;;;;23.97;40.78;100630.50;4842247;28;97858;-55
2022/07/21 02:52:51;;;;;;;;;;;;;;;23.96;40.85;100630.84;4842472;28;97947;-55
2022/07/21 02:55:44;;;;;;;;;;;;;;;23.94;40.97;100644.97;4844330;28;98445;-62
2022/07/21 02:58:46;;;;;;;;;;;;;;;23.95;41.07;100648.50;4907164;28;99973;-55
2022/07/21 03:01:38;;;;;;;;;;;;;;;23.94;40.98;100641.41;4834250;28;97979;-56
2022/07/21 03:04:31;;;;;;;;;;;;;;;23.90;41.03;100648.78;4841927;28;98190;-56
2022/07/21 03:07:23;;;;;;;;;;;;;;;23.86;40.99;100653.38;4843347;28;98303;-61
2022/07/21 03:10:16;;;;;;;;;;;;;;;23.84;40.96;100650.19;4836938;28;98178;-61
2022/07/21 03:13:08;;;;;;;;;;;;;;;23.83;41.04;100654.09;4842160;28;97898;-56
2022/07/21 03:16:01;;;;;;;;;;;;;;;23.85;41.08;100660.81;4842924;28;98013;-56
2022/07/21 03:18:54;;;;;;;;;;;;;;;23.87;40.89;100669.53;4843199;28;98415;-56
2022/07/21 03:21:46;;;;;;;;;;;;;;;23.89;40.78;100671.94;4843380;28;98306;-61
2022/07/21 03:24:39;;;;;;;;;;;;;;;23.91;40.81;100672.38;4841448;28;98837;-56
2022/07/21 03:27:35;;;;;;;;;;;;;;;23.91;40.87;100673.19;4843735;28;97874;-63
2022/07/21 03:30:29;;;;;;;;;;;;;;;23.93;41.04;100681.06;4891743;28;100408;-55
2022/07/21 03:33:21;;;;;;;;;;;;;;;23.94;40.89;100677.19;4842901;28;99307;-61
2022/07/21 03:36:14;;;;;;;;;;;;;;;23.93;41.01;100673.66;4842607;28;97939;-62
2022/07/21 03:39:07;;;;;;;;;;;;;;;23.94;41.01;100671.69;4907567;28;98260;-55
2022/07/21 03:41:59;;;;;;;;;;;;;;;23.96;40.81;100670.16;4842005;28;98529;-55
2022/07/21 03:44:52;;;;;;;;;;;;;;;23.98;40.95;100678.88;4842891;28;98442;-56
2022/07/21 03:47:44;;;;;;;;;;;;;;;24.02;40.97;100680.94;4843227;28;98178;-61
2022/07/21 03:50:37;;;;;;;;;;;;;;;24.03;40.95;100686.06;4842368;28;97794;-61
2022/07/21 03:53:29;;;;;;;;;;;;;;;24.07;41.11;100691.69;4842366;28;98137;-62
2022/07/21 03:56:22;;;;;;;;;;;;;;;24.10;41.07;100699.25;4907066;28;100267;-55
2022/07/21 03:59:15;;;;;;;;;;;;;;;24.12;40.88;100700.47;4843633;28;97783;-61
2022/07/21 04:02:08;;;;;;;;;;;;;;;24.14;41.20;100708.41;4842116;28;98094;-56
2022/07/21 04:05:00;;;;;;;;;;;;;;;24.16;41.02;100714.34;4841556;28;98202;-55
2022/07/21 04:07:53;;;;;;;;;;;;;;;24.17;41.36;100716.75;4826652;28;98162;-55
2022/07/21 04:10:46;;;;;;;;;;;;;;;24.18;41.29;100723.06;4840803;28;98097;-55
2022/07/21 04:13:39;;;;;;;;;;;;;;;24.15;41.30;100724.53;4841638;28;98050;-62
2022/07/21 04:16:31;;;;;;;;;;;;;;;24.14;41.72;100724.91;4842613;28;98682;-61
2022/07/21 04:19:24;;;;;;;;;;;;;;;24.12;41.29;100722.50;4840633;28;98070;-62
2022/07/21 04:22:17;;;;;;;;;;;;;;;24.11;41.92;100740.19;4842055;28;98234;-61
2022/07/21 04:25:10;;;;;;;;;;;;;;;24.12;41.79;100740.97;4841199;28;98015;-61
2022/07/21 04:28:02;;;;;;;;;;;;;;;24.14;41.86;100746.94;4841820;28;98789;-62
2022/07/21 04:30:55;;;;;;;;;;;;;;;24.17;41.87;100749.78;4840822;28;98188;-62
2022/07/21 04:33:47;;;;;;;;;;;;;;;24.21;42.02;100756.19;4841354;28;98011;-62
2022/07/21 04:36:40;;;;;;;;;;;;;;;24.28;42.17;100757.53;4841499;28;97923;-62
2022/07/21 04:39:33;;;;;;;;;;;;;;;24.33;42.41;100762.78;4840828;28;98164;-63
2022/07/21 04:42:25;;;;;;;;;;;;;;;24.38;42.02;100768.03;4841656;28;98374;-62
2022/07/21 04:45:18;;;;;;;;;;;;;;;24.44;42.44;100769.38;4844757;28;98308;-62
2022/07/21 04:48:11;;;;;;;;;;;;;;;24.51;42.22;100766.81;4841462;28;97877;-56
2022/07/21 04:51:04;;;;;;;;;;;;;;;24.58;42.20;100772.53;4841854;28;98332;-56
2022/07/21 04:53:56;;;;;;;;;;;;;;;24.63;42.33;100769.50;4841238;28;98445;-56
2022/07/21 04:56:49;;;;;;;;;;;;;;;24.71;42.26;100771.25;4841269;28;97782;-55
2022/07/21 04:59:42;;;;;;;;;;;;;;;24.81;42.24;100769.94;4840801;28;98197;-55
2022/07/21 05:02:35;;;;;;;;;;;;;;;24.89;42.51;100766.22;4841402;28;98086;-56
2022/07/21 05:05:28;;;;;;;;;;;;;;;24.97;42.41;100762.47;4905054;28;97815;-61
2022/07/21 05:08:21;;;;;;;;;;;;;;;25.08;42.34;100768.22;4841270;28;97816;-55
2022/07/21 05:11:13;;;;;;;;;;;;;;;25.26;42.12;100765.91;4828482;28;97861;-55
2022/07/21 05:14:06;;;;;;;;;;;;;;;25.41;42.38;100767.03;4841091;28;98919;-62
2022/07/21 05:16:59;;;;;;;;;;;;;;;25.60;42.08;100761.53;4841122;28;97865;-55
2022/07/21 05:19:51;;;;;;;;;;;;;;;25.78;41.82;100755.59;4841038;28;99017;-62
2022/07/21 05:22:44;;;;;;;;;;;;;;;25.98;41.97;100759.16;4840839;28;97674;-55
2022/07/21 05:25:37;;;;;;;;;;;;;;;26.18;41.57;100756.00;4832448;28;99174;-56
2022/07/21 05:28:30;;;;;;;;;;;;;;;26.37;41.69;100755.19;4840702;28;98290;-61
2022/07/21 05:31:23;;;;;;;;;;;;;;;26.58;41.28;100760.31;4841303;28;98014;-61
2022/07/21 05:34:15;;;;;;;;;;;;;;;26.77;41.21;100758.66;4841268;28;97866;-61
2022/07/21 05:37:08;;;;;;;;;;;;;;;26.98;41.01;100767.25;4841570;28;98408;-55
2022/07/21 05:40:00;;;;;;;;;;;;;;;27.20;40.82;100762.09;4840303;28;98641;-55
2022/07/21 05:42:53;;;;;;;;;;;;;;;27.41;40.53;100759.63;4839190;28;98480;-56
2022/07/21 05:45:46;;;;;;;;;;;;;;;27.62;40.24;100768.19;4838068;28;97826;-62
2022/07/21 05:48:39;;;;;;;;;;;;;;;27.83;40.02;100772.44;4839806;28;97867;-56
2022/07/21 05:51:32;;;;;;;;;;;;;;;28.02;39.81;100769.50;4841531;28;98253;-56
2022/07/21 05:54:24;;;;;;;;;;;;;;;28.24;39.32;100769.72;4841097;28;98212;-61
2022/07/21 05:57:17;;;;;;;;;;;;;;;28.49;38.98;100783.84;4841163;28;98472;-56
2022/07/21 06:00:10;;;;;;;;;;;;;;;28.76;38.84;100774.19;4840451;28;98440;-61
2022/07/21 06:03:03;;;;;;;;;;;;;;;29.08;38.52;100770.88;4840213;28;98374;-61
2022/07/21 06:05:56;;;;;;;;;;;;;;;30.29;36.40;100776.22;4840582;28;98175;-56
2022/07/21 06:08:48;;;;;;;;;;;;;;;31.51;35.25;100772.19;4839938;28;98822;-56
2022/07/21 06:11:41;;;;;;;;;;;;;;;31.84;35.37;100780.47;4840580;28;98901;-61
2022/07/21 06:14:34;;;;;;;;;;;;;;;33.57;32.88;100770.34;4840296;28;98370;-56
2022/07/21 06:17:26;;;;;;;;;;;;;;;34.22;32.56;100779.47;4840488;28;97777;-56
2022/07/21 06:20:19;;;;;;;;;;;;;;;34.04;32.94;100782.53;4841504;28;97777;-56
2022/07/21 06:23:11;;;;;;;;;;;;;;;35.11;31.47;100783.63;4839411;28;99559;-56
2022/07/21 06:26:04;;;;;;;;;;;;;;;35.39;31.33;100779.50;4840383;28;98969;-61
2022/07/21 06:28:56;;;;;;;;;;;;;;;35.19;31.29;100778.69;4838933;28;98053;-61
2022/07/21 06:31:49;;;;;;;;;;;;;;;35.32;31.11;100774.03;4839904;28;98239;-62
2022/07/21 06:34:42;;;;;;;;;;;;;;;35.38;30.43;100766.72;4839446;28;97920;-62
2022/07/21 06:37:34;;;;;;;;;;;;;;;35.47;30.55;100770.94;4836457;28;98416;-55
2022/07/21 06:40:27;;;;;;;;;;;;;;;35.73;30.09;100769.25;4830482;28;98163;-62
2022/07/21 06:43:31;;;;;;;;;;;;;;;35.73;30.21;100767.22;4826409;28;98147;-55
2022/07/21 06:46:23;;;;;;;;;;;;;;;35.83;30.02;100769.00;4839713;28;99105;-62
2022/07/21 06:49:16;;;;;;;;;;;;;;;35.98;29.53;100777.13;4838933;28;98208;-61
2022/07/21 06:52:08;;;;;;;;;;;;;;;36.04;29.49;100772.56;4840119;28;97893;-62
2022/07/21 06:55:01;;;;;;;;;;;;;;;36.11;29.25;100766.81;4840441;28;99565;-55
2022/07/21 06:57:54;;;;;;;;;;;;;;;36.20;29.32;100769.00;4839791;28;98904;-55
2022/07/21 07:00:46;;;;;;;;;;;;;;;36.29;29.03;100769.22;4839153;28;98584;-55
2022/07/21 07:03:39;;;;;;;;;;;;;;;36.37;28.58;100762.19;4834222;28;98262;-55
2022/07/21 07:06:32;;;;;;;;;;;;;;;36.46;28.66;100772.81;4839980;28;97721;-62
2022/07/21 07:09:24;;;;;;;;;;;;;;;36.55;28.35;100768.19;4839525;28;98345;-56
2022/07/21 07:12:17;;;;;;;;;;;;;;;36.66;28.28;100778.34;4840345;28;98566;-55
2022/07/21 07:15:09;;;;;;;;;;;;;;;36.78;28.02;100772.00;4839313;28;97861;-55
2022/07/21 07:18:02;;;;;;;;;;;;;;;36.90;27.81;100776.13;4838961;28;97840;-61
2022/07/21 07:20:55;;;;;;;;;;;;;;;37.00;27.84;100773.06;4839571;28;98389;-62
2022/07/21 07:23:48;;;;;;;;;;;;;;;37.24;27.79;100770.81;4919963;28;97884;-55
2022/07/21 07:26:40;;;;;;;;;;;;;;;37.47;27.55;100766.19;4839385;28;97953;-61
2022/07/21 07:29:33;;;;;;;;;;;;;;;37.67;26.99;100772.41;4839624;28;98232;-55
2022/07/21 07:32:25;;;;;;;;;;;;;;;37.50;27.05;100776.53;4826586;28;98267;-55
2022/07/21 07:35:18;;;;;;;;;;;;;;;37.73;26.93;100781.06;4838973;28;98426;-56
2022/07/21 07:38:10;;;;;;;;;;;;;;;37.93;26.64;100769.69;4839075;28;98409;-61
2022/07/21 07:41:03;;;;;;;;;;;;;;;38.12;26.99;100774.28;4841644;28;98166;-55
2022/07/21 07:43:56;;;;;;;;;;;;;;;38.34;26.94;100779.25;4841735;28;98549;-61
2022/07/21 07:46:49;;;;;;;;;;;;;;;38.57;26.70;100778.88;4841806;28;98737;-56
2022/07/21 07:49:41;;;;;;;;;;;;;;;38.85;26.62;100779.97;4841281;28;98719;-55
2022/07/21 07:52:34;;;;;;;;;;;;;;;39.10;26.30;100790.34;4842580;28;97681;-56
2022/07/21 07:55:27;;;;;;;;;;;;;;;38.93;32.97;100792.56;4823030;28;98448;-66
2022/07/21 07:58:19;;;;;;;;;;;;;;;38.61;35.21;100784.41;4828842;28;98600;-57
2022/07/21 08:01:12;;;;;;;;;;;;;;;38.41;33.14;100795.91;4841143;28;97971;-57
2022/07/21 08:04:04;;;;;;;;;;;;;;;37.94;33.83;100790.94;4841875;28;97810;-57
2022/07/21 08:06:57;;;;;;;;;;;;;;;37.98;32.67;100783.19;4842234;28;98588;-63
2022/07/21 08:09:50;;;;;;;;;;;;;;;38.55;31.56;100790.63;4841304;28;98382;-63
2022/07/21 08:12:42;;;;;;;;;;;;;;;38.09;31.20;100772.38;4838375;28;98180;-56
2022/07/21 08:15:35;;;;;;;;;;;;;;;37.80;31.06;100784.47;4841587;28;98724;-62
2022/07/21 08:18:28;;;;;;;;;;;;;;;38.00;30.28;100789.91;4905571;28;98219;-62
2022/07/21 08:21:20;;;;;;;;;;;;;;;38.26;29.51;100784.28;4841350;28;99206;-56
2022/07/21 08:24:13;;;;;;;;;;;;;;;38.15;28.97;100789.47;4841272;28;98358;-61
2022/07/21 08:27:05;;;;;;;;;;;;;;;38.06;28.08;100781.72;4842052;28;97917;-61
2022/07/21 08:29:58;;;;;;;;;;;;;;;38.28;27.65;100787.44;4841359;28;97799;-61
2022/07/21 08:32:50;;;;;;;;;;;;;;;39.24;26.87;100791.91;4828532;28;98418;-56
2022/07/21 08:35:43;;;;;;;;;;;;;;;39.12;27.39;100793.50;4840754;28;97754;-56
2022/07/21 08:38:36;;;;;;;;;;;;;;;38.54;27.92;100783.38;4904576;28;97942;-56
2022/07/21 08:41:29;;;;;;;;;;;;;;;38.20;27.95;100792.53;4841356;28;98821;-56
2022/07/21 08:44:21;;;;;;;;;;;;;;;38.16;27.84;100789.03;4840242;28;99179;-56
2022/07/21 08:47:14;;;;;;;;;;;;;;;37.95;27.78;100793.28;4906153;28;98023;-56
2022/07/21 08:50:16;;;;;;;;;;;;;;;37.81;28.21;100785.28;4839552;28;97885;-56
2022/07/21 08:53:18;;;;;;;;;;;;;;;38.06;27.71;100793.75;4821718;28;98058;-56
2022/07/21 08:56:10;;;;;;;;;;;;;;;37.78;27.24;100788.97;4822342;28;98370;-61
2022/07/21 08:59:04;;;;;;;;;;;;;;;38.40;26.43;100797.13;4822036;28;98126;-56
2022/07/21 09:01:57;;;;;;;;;;;;;;;39.87;25.73;100802.06;4833565;28;97897;-56
2022/07/21 09:05:08;;;;;;;;;;;;;;;41.31;24.46;100800.56;4839446;28;98763;-56
2022/07/21 09:08:24;;;;;;;;;;;;;;;42.85;23.57;100796.09;4881618;28;98357;-63
2022/07/21 09:11:30;;;;;;;;;;;;;;;43.04;23.33;100803.19;4844934;28;98147;-63
2022/07/21 09:14:49;;;;;;;;;;;;;;;44.13;22.15;100799.72;4914899;28;98145;-61
2022/07/21 09:17:42;;;;;;;;;;;;;;;44.80;21.34;100806.38;4859818;28;98892;-56
2022/07/21 09:21:10;;;;;;;;;;;;;;;44.95;21.28;100792.09;4843697;28;98223;-61
2022/07/21 09:24:03;;;;;;;;;;;;;;;44.39;21.46;100787.75;4877890;28;98043;-63
2022/07/21 09:27:27;;;;;;;;;;;;;;;44.78;21.24;100799.66;4839187;28;97756;-64
2022/07/21 09:30:37;;;;;;;;;;;;;;;45.33;20.50;100795.09;4848966;28;98400;-62
2022/07/21 09:33:37;;;;;;;;;;;;;;;45.63;20.48;100805.00;4809578;28;98466;-63
2022/07/21 09:36:50;;;;;;;;;;;;;;;45.81;20.11;100801.00;4835485;28;98054;-61
2022/07/21 09:40:20;;;;;;;;;;;;;;;45.94;20.09;100806.28;4895040;28;97822;-63
2022/07/21 09:43:22;;;;;;;;;;;;;;;46.01;20.04;100800.91;4822226;28;98270;-62
2022/07/21 09:46:17;;;;;;;;;;;;;;;46.43;19.48;100799.38;4893928;28;99048;-64
2022/07/21 09:49:10;;;;;;;;;;;;;;;47.12;19.54;100799.16;4840486;28;98108;-62
2022/07/21 09:52:02;;;;;;;;;;;;;;;47.72;18.54;100801.09;4840987;28;97872;-63
2022/07/21 09:54:55;;;;;;;;;;;;;;;48.42;18.17;100803.63;4840165;28;98913;-63
2022/07/21 09:57:49;;;;;;;;;;;;;;;48.18;18.41;100800.53;4895126;28;98168;-61
2022/07/21 10:00:41;;;;;;;;;;;;;;;49.25;17.56;100798.06;4840038;28;98046;-62
2022/07/21 10:03:34;;;;;;;;;;;;;;;49.74;17.62;100803.13;4914749;28;98376;-63
2022/07/21 10:06:28;;;;;;;;;;;;;;;50.32;16.88;100791.41;4840409;28;98293;-62
2022/07/21 10:09:21;;;;;;;;;;;;;;;51.02;16.60;100803.03;4839674;28;98587;-64
2022/07/21 10:12:14;;;;;;;;;;;;;;;51.54;16.27;100793.13;4841490;28;97705;-57
2022/07/21 10:15:07;;;;;;;;;;;;;;;51.91;16.09;100779.97;4839569;28;98376;-63
2022/07/21 10:17:59;;;;;;;;;;;;;;;51.14;16.34;100772.09;4839715;28;98979;-62
2022/07/21 10:20:52;;;;;;;;;;;;;;;50.88;16.29;100766.97;4840124;28;98820;-62
2022/07/21 10:24:08;;;;;;;;;;;;;;;51.47;16.24;100762.19;4840019;28;98049;-57
2022/07/21 10:27:35;;;;;;;;;;;;;;;51.46;16.18;100752.81;4845454;28;97746;-64
2022/07/21 10:30:28;;;;;;;;;;;;;;;50.07;16.87;100742.72;4847938;28;98363;-57
2022/07/21 10:33:21;;;;;;;;;;;;;;;48.48;17.66;100731.38;4895255;28;97975;-63
2022/07/21 10:36:13;;;;;;;;;;;;;;;48.29;17.95;100736.88;4832528;28;98562;-57
2022/07/21 10:42:39;;;;;;;;;;;;;;;47.25;18.60;100733.09;4830483;28;98085;-63
2022/07/21 10:45:59;;;;;;;;;;;;;;;47.52;18.31;100733.59;4840115;28;98119;-58
2022/07/21 10:49:15;;;;;;;;;;;;;;;46.46;19.08;100740.63;4885321;28;97817;-62
2022/07/21 10:52:08;;;;;;;;;;;;;;;47.57;18.01;100744.25;4855992;28;98062;-57
2022/07/21 10:55:12;;;;;;;;;;;;;;;45.78;19.26;100757.22;4838962;28;98978;-57
2022/07/21 10:58:16;;;;;;;;;;;;;;;44.63;19.93;100753.44;4870867;28;98505;-62
2022/07/21 11:01:28;;;;;;;;;;;;;;;43.41;21.09;100746.16;4839827;28;98150;-57
2022/07/21 11:04:45;;;;;;;;;;;;;;;42.42;21.58;100752.94;4904108;28;98147;-62
2022/07/21 11:07:48;;;;;;;;;;;;;;;41.97;21.74;100739.78;4871282;28;98157;-57
2022/07/21 11:10:41;;;;;;;;;;;;;;;41.04;22.44;100744.06;4839200;28;98292;-57
2022/07/21 11:13:34;;;;;;;;;;;;;;;40.66;22.66;100746.06;4839727;28;97910;-57
2022/07/21 11:16:26;;;;;;;;;;;;;;;40.23;23.13;100753.47;4827364;28;97975;-61
2022/07/21 11:19:30;;;;;;;;;;;;;;;40.38;23.39;100752.91;4840502;28;98368;-62
2022/07/21 11:22:51;;;;;;;;;;;;;;;39.72;23.70;100762.34;4847218;28;98859;-56
2022/07/21 11:25:44;;;;;;;;;;;;;;;39.43;24.01;100764.66;4830819;28;98405;-57
2022/07/21 11:28:54;;;;;;;;;;;;;;;40.06;23.79;100768.28;4918606;28;97683;-60
2022/07/21 11:32:01;;;;;;;;;;;;;;;40.43;23.84;100783.31;4886476;28;98182;-61
2022/07/21 11:35:14;;;;;;;;;;;;;;;39.78;24.51;100776.63;4842293;28;98456;-57
2022/07/21 11:38:11;;;;;;;;;;;;;;;39.15;25.39;100774.91;4844623;28;100224;-62
2022/07/21 11:41:04;;;;;;;;;;;;;;;38.64;25.56;100778.66;4907044;28;97881;-61
2022/07/21 11:44:17;;;;;;;;;;;;;;;38.24;25.72;100781.13;4917456;28;98403;-57
2022/07/21 11:47:20;;;;;;;;;;;;;;;38.00;26.25;100773.03;4845764;28;98480;-56
2022/07/21 11:50:14;;;;;;;;;;;;;;;37.92;26.33;100788.56;4840290;28;98463;-63
2022/07/21 11:53:06;;;;;;;;;;;;;;;37.77;26.58;100791.00;4842337;28;97776;-58
2022/07/21 11:55:59;;;;;;;;;;;;;;;37.81;26.58;100788.88;4841821;28;98083;-63
2022/07/21 11:58:52;;;;;;;;;;;;;;;38.11;26.28;100800.84;4840906;28;98098;-57
2022/07/21 12:01:55;;;;;;;;;;;;;;;39.01;25.64;100805.16;4829668;28;98172;-57
2022/07/21 12:05:13;;;;;;;;;;;;;;;39.44;25.56;100800.03;4826407;28;98028;-61
2022/07/21 12:08:15;;;;;;;;;;;;;;;39.02;25.78;100789.81;4856879;28;98268;-57
2022/07/21 12:11:18;;;;;;;;;;;;;;;38.62;26.39;100794.41;4840265;28;98121;-57
2022/07/21 12:14:43;;;;;;;;;;;;;;;38.35;26.75;100800.53;4841772;28;98025;-57
2022/07/21 12:17:47;;;;;;;;;;;;;;;38.21;26.42;100821.44;4823102;28;98450;-62
2022/07/21 12:20:51;;;;;;;;;;;;;;;38.07;27.10;100812.19;4906642;28;100012;-57
2022/07/21 12:24:01;;;;;;;;;;;;;;;37.62;27.54;100815.13;4910119;28;99007;-57
2022/07/21 12:26:54;;;;;;;;;;;;;;;37.12;28.06;100810.09;4878542;28;98003;-61
2022/07/21 12:30:04;;;;;;;;;;;;;;;36.62;28.76;100818.50;4841239;28;97872;-56
2022/07/21 12:33:35;;;;;;;;;;;;;;;36.25;29.21;100821.78;4886201;28;97815;-62
2022/07/21 12:36:27;;;;;;;;;;;;;;;35.89;30.02;100837.38;4842035;28;98155;-62
2022/07/21 12:43:20;;;;;;;;;;;;;;;35.31;30.58;100825.69;4879294;28;98038;-62
2022/07/21 12:46:22;;;;;;;;;;;;;;;34.98;30.62;100835.84;4841106;28;98187;-56
2022/07/21 12:49:20;;;;;;;;;;;;;;;34.69;31.21;100835.53;4841082;28;98356;-57
2022/07/21 12:52:14;;;;;;;;;;;;;;;34.59;31.09;100826.09;4839460;28;97804;-61
2022/07/21 12:55:06;;;;;;;;;;;;;;;34.52;31.53;100823.41;4834720;28;97859;-61
2022/07/21 12:57:59;;;;;;;;;;;;;;;34.32;31.99;100826.06;4843719;28;98717;-62
2022/07/21 13:00:52;;;;;;;;;;;;;;;34.12;31.56;100836.34;4826078;28;98493;-61
2022/07/21 13:03:45;;;;;;;;;;;;;;;33.91;32.26;100842.97;4841490;28;98356;-57
2022/07/21 13:06:38;;;;;;;;;;;;;;;33.72;32.10;100848.00;4891614;28;97877;-56
2022/07/21 13:09:30;;;;;;;;;;;;;;;33.55;32.21;100839.78;4833255;28;98181;-56
2022/07/21 13:12:24;;;;;;;;;;;;;;;33.35;32.40;100837.56;4842805;28;98546;-56
2022/07/21 13:15:16;;;;;;;;;;;;;;;33.11;33.15;100838.63;4841581;28;100132;-61
2022/07/21 13:18:09;;;;;;;;;;;;;;;33.08;32.77;100845.03;4841474;28;98037;-63
2022/07/21 13:21:02;;;;;;;;;;;;;;;32.99;32.99;100859.47;4841758;28;98557;-56
2022/07/21 13:23:54;;;;;;;;;;;;;;;32.86;33.25;100847.19;4841527;28;98300;-62
2022/07/21 13:26:47;;;;;;;;;;;;;;;32.65;33.56;100845.34;4843030;28;97834;-61
2022/07/21 13:29:40;;;;;;;;;;;;;;;32.44;33.64;100863.81;4841353;28;97821;-61
2022/07/21 13:32:33;;;;;;;;;;;;;;;32.24;33.99;100851.53;4836240;28;99149;-61
2022/07/21 13:35:25;;;;;;;;;;;;;;;32.10;34.03;100868.31;4842690;28;98507;-62
2022/07/21 13:38:18;;;;;;;;;;;;;;;32.01;34.18;100864.00;4840756;28;98131;-56
2022/07/21 13:41:11;;;;;;;;;;;;;;;31.92;34.06;100860.84;4841278;28;98066;-62
2022/07/21 13:44:03;;;;;;;;;;;;;;;31.77;34.44;100864.84;4841660;28;97746;-61
2022/07/21 13:46:56;;;;;;;;;;;;;;;31.51;34.93;100861.31;4841838;28;98760;-56
2022/07/21 13:49:49;;;;;;;;;;;;;;;31.26;34.90;100849.41;4825096;28;97881;-63
2022/07/21 13:52:42;;;;;;;;;;;;;;;30.99;35.10;100854.59;4904566;28;98057;-56
2022/07/21 13:55:34;;;;;;;;;;;;;;;30.74;35.57;100849.03;4907920;28;98160;-61
2022/07/21 13:58:27;;;;;;;;;;;;;;;30.51;35.85;100857.69;4912838;28;98309;-56
2022/07/21 14:01:19;;;;;;;;;;;;;;;30.29;35.95;100843.72;4920239;28;98491;-62
2022/07/21 14:04:12;;;;;;;;;;;;;;;30.11;36.85;100837.31;4898797;28;98122;-58
2022/07/21 14:07:05;;;;;;;;;;;;;;;29.96;36.89;100824.56;4911625;28;98583;-62
2022/07/21 14:09:57;;;;;;;;;;;;;;;29.83;37.47;100821.31;4916761;28;98424;-62
2022/07/21 14:12:50;;;;;;;;;;;;;;;29.72;38.06;100804.59;4935545;28;98709;-65
2022/07/21 14:15:43;;;;;;;;;;;;;;;29.61;39.20;100812.09;4898592;28;98905;-62
2022/07/21 14:18:35;;;;;;;;;;;;;;;29.48;40.05;100821.91;4885653;28;98830;-62
2022/07/21 14:21:28;;;;;;;;;;;;;;;29.39;40.10;100827.00;4935621;28;98247;-63
2022/07/21 14:27:23;;;;;;;;;;;;;;;29.71;40.34;100843.84;4874005;28;98286;-64
2022/07/21 14:30:16;;;;;;;;;;;;;;;29.81;40.86;100849.47;4872140;28;97905;-57
2022/07/21 14:33:09;;;;;;;;;;;;;;;29.83;41.30;100846.31;4905027;28;98403;-62
2022/07/21 14:36:02;;;;;;;;;;;;;;;29.77;41.29;100854.22;4902840;28;99151;-57
2022/07/21 14:38:54;;;;;;;;;;;;;;;29.61;41.66;100861.28;4888567;28;99169;-57
2022/07/21 14:41:58;;;;;;;;;;;;;;;29.39;42.23;100860.31;4925488;28;98313;-57
2022/07/21 14:44:51;;;;;;;;;;;;;;;29.13;42.85;100861.31;4883965;28;98408;-63
2022/07/21 14:47:43;;;;;;;;;;;;;;;28.84;43.32;100863.78;4872936;28;97800;-62
2022/07/21 14:50:36;;;;;;;;;;;;;;;28.59;43.83;100872.66;4894930;28;97939;-63
2022/07/21 14:53:29;;;;;;;;;;;;;;;28.35;44.63;100862.88;4938403;28;97965;-64
2022/07/21 14:56:22;;;;;;;;;;;;;;;28.16;45.30;100859.50;4914829;28;98444;-65
2022/07/21 14:59:14;;;;;;;;;;;;;;;27.95;45.55;100869.13;4901878;28;98241;-63
2022/07/21 15:02:07;;;;;;;;;;;;;;;27.73;46.42;100864.44;4918482;28;97742;-62
2022/07/21 15:04:59;;;;;;;;;;;;;;;27.54;47.04;100862.59;4922400;28;98400;-64
2022/07/21 15:07:52;;;;;;;;;;;;;;;27.35;48.10;100863.47;4901125;28;98363;-64
2022/07/21 15:10:46;;;;;;;;;;;;;;;27.14;48.40;100872.25;4899050;28;99361;-62
2022/07/21 15:13:38;;;;;;;;;;;;;;;26.96;48.71;100866.41;4937250;28;98146;-64